Time;durP1;ratioP1;P1;durP2;ratioP2;P2;SDS_P1;SDS_P2;PMS_P1;PMS_P2;Temp;Humidity;BMP_temperature;BMP_pressure;BME280_temperature;BME280_humidity;BME280_pressure;Samples;Min_cycle;Max_cycle;Signal;HPM_P1;HPM_P2
2022/09/05 00:00:54;;;;;;;2.40;2.20;;;15.30;99.90;;;;;;5020942;28;20474;-95
2022/09/05 00:03:29;;;;;;;2.50;2.30;;;15.30;99.90;;;;;;5017929;28;20561;-94
2022/09/05 00:06:06;;;;;;;2.30;2.10;;;15.30;99.90;;;;;;5016231;28;20482;-94
2022/09/05 00:08:56;;;;;;;4.70;2.40;;;15.30;99.90;;;;;;5016918;28;20489;-94
2022/09/05 00:11:32;;;;;;;2.47;2.27;;;15.20;99.90;;;;;;5014750;28;20461;-94
2022/09/05 00:14:16;;;;;;;2.50;2.30;;;15.20;99.90;;;;;;5016946;28;20461;-93
2022/09/05 00:17:19;;;;;;;2.60;2.37;;;15.20;99.90;;;;;;5017603;28;20534;-96
2022/09/05 00:19:56;;;;;;;3.03;2.73;;;15.20;99.90;;;;;;5019477;28;20450;-95
2022/09/05 00:22:40;;;;;;;2.10;1.90;;;15.20;99.90;;;;;;5021708;28;20445;-94
2022/09/05 00:25:51;;;;;;;2.57;2.20;;;15.10;99.90;;;;;;5021364;28;20430;-93
2022/09/05 00:28:36;;;;;;;2.80;2.40;;;15.10;99.90;;;;;;5041545;22;20479;-92
2022/09/05 00:31:23;;;;;;;1.80;1.70;;;15.10;99.90;;;;;;5080825;28;20449;-93
2022/09/05 00:34:19;;;;;;;2.10;1.90;;;15.10;99.90;;;;;;5079990;28;20435;-93
2022/09/05 00:37:11;;;;;;;3.70;2.30;;;15.10;99.90;;;;;;5080446;28;20456;-94
2022/09/05 00:39:41;;;;;;;2.70;2.37;;;15.00;99.90;;;;;;5080653;28;20464;-93
2022/09/05 00:42:13;;;;;;;2.60;2.40;;;15.00;99.90;;;;;;5080884;28;20447;-94
2022/09/05 00:44:51;;;;;;;2.30;2.03;;;15.00;99.90;;;;;;5092803;22;20472;-93
2022/09/05 00:47:36;;;;;;;2.53;2.30;;;15.00;99.90;;;;;;5151917;22;20530;-93
2022/09/05 00:50:09;;;;;;;3.60;2.20;;;15.00;99.90;;;;;;5091388;22;20562;-92
2022/09/05 00:52:42;;;;;;;2.97;2.20;;;15.00;99.90;;;;;;5080578;28;20444;-93
2022/09/05 00:55:22;;;;;;;2.40;2.00;;;15.00;99.90;;;;;;5080440;28;20516;-93
2022/09/05 00:58:21;;;;;;;2.10;1.90;;;14.90;99.90;;;;;;5080379;28;20460;-93
2022/09/05 01:03:45;;;;;;;2.20;2.00;;;14.90;99.90;;;;;;3013828;22;21477;-92
2022/09/05 01:06:26;;;;;;;2.67;2.47;;;14.90;99.90;;;;;;5060272;28;20524;-93
2022/09/05 01:09:13;;;;;;;2.63;2.43;;;14.90;99.90;;;;;;5060065;28;20468;-94
2022/09/05 01:11:53;;;;;;;2.30;2.10;;;14.90;99.90;;;;;;5074375;23;20478;-94
2022/09/05 01:32:52;;;;;;;2.53;1.83;;;14.70;99.90;;;;;;2868004;22;20857;-94
2022/09/05 01:35:43;;;;;;;2.77;2.20;;;14.70;99.90;;;;;;5053735;28;20475;-93
2022/09/05 01:38:16;;;;;;;2.20;1.83;;;14.70;99.90;;;;;;5054347;28;20484;-94
2022/09/05 01:40:50;;;;;;;2.37;2.17;;;14.60;99.90;;;;;;5054026;28;20457;-94
2022/09/05 01:43:26;;;;;;;2.37;2.17;;;14.60;99.90;;;;;;5055777;28;20448;-93
2022/09/05 01:45:59;;;;;;;2.60;2.40;;;14.60;99.90;;;;;;5055536;28;20468;-93
2022/09/05 01:48:43;;;;;;;2.53;2.33;;;14.60;99.90;;;;;;5054750;28;20479;-93
2022/09/05 01:51:23;;;;;;;2.43;2.23;;;14.60;99.90;;;;;;5053439;28;20445;-93
2022/09/05 01:53:56;;;;;;;1.90;1.70;;;14.50;99.90;;;;;;5053458;28;20430;-93
2022/09/05 01:56:46;;;;;;;3.23;2.40;;;14.50;99.90;;;;;;5055239;28;20484;-94
2022/09/05 01:59:28;;;;;;;2.50;2.30;;;14.50;99.90;;;;;;5058215;28;20468;-94
2022/09/05 02:02:27;;;;;;;2.10;2.00;;;14.50;99.90;;;;;;5058295;28;20453;-93
2022/09/05 02:05:32;;;;;;;4.33;2.20;;;14.50;99.90;;;;;;5102854;22;20500;-93
2022/09/05 02:11:15;;;;;;;2.00;1.90;;;14.40;99.90;;;;;;5073357;28;20452;-95
2022/09/05 02:13:58;;;;;;;2.37;2.17;;;14.40;99.90;;;;;;5073374;28;20507;-94
2022/09/05 02:16:49;;;;;;;1.83;1.70;;;14.40;99.90;;;;;;5075467;28;20435;-94
2022/09/05 02:19:33;;;;;;;2.53;2.20;;;14.40;99.90;;;;;;5078851;28;20520;-93
2022/09/05 02:22:10;;;;;;;2.43;2.10;;;14.40;99.90;;;;;;5078004;28;20442;-93
2022/09/05 02:24:41;;;;;;;2.20;2.00;;;14.40;99.90;;;;;;5077359;28;20466;-93
2022/09/05 02:27:27;;;;;;;5.73;2.83;;;14.30;99.90;;;;;;5077478;28;20552;-93
2022/09/05 02:30:07;;;;;;;2.37;2.17;;;14.30;99.90;;;;;;5077692;28;20440;-93
2022/09/05 02:32:49;;;;;;;3.33;2.50;;;14.30;99.90;;;;;;5076936;28;20509;-92
2022/09/05 02:35:24;;;;;;;2.10;1.90;;;14.30;99.90;;;;;;5077798;28;20463;-95
2022/09/05 02:37:55;;;;;;;2.53;2.33;;;14.30;99.90;;;;;;5077931;28;20439;-94
2022/09/05 02:40:31;;;;;;;2.60;2.40;;;14.30;99.90;;;;;;5073978;28;20527;-94
2022/09/05 02:43:21;;;;;;;2.90;2.33;;;14.30;99.90;;;;;;5071156;28;20459;-93
2022/09/05 02:45:58;;;;;;;2.57;2.37;;;14.30;99.90;;;;;;5069712;28;20471;-94
2022/09/05 02:48:41;;;;;;;1.70;1.60;;;14.30;99.90;;;;;;5069764;28;20482;-93
2022/09/05 02:51:16;;;;;;;3.00;2.63;;;14.20;99.90;;;;;;5070626;28;20531;-93
2022/09/05 02:54:02;;;;;;;2.83;2.23;;;14.20;99.90;;;;;;5069947;28;20507;-93
2022/09/05 02:56:54;;;;;;;3.53;2.40;;;14.20;99.90;;;;;;5062543;28;20463;-94
2022/09/05 02:59:45;;;;;;;3.13;1.90;;;14.20;99.90;;;;;;5060292;28;20467;-93
2022/09/05 03:02:21;;;;;;;2.10;1.90;;;14.20;99.90;;;;;;5061779;28;20456;-92
2022/09/05 03:04:52;;;;;;;3.27;2.40;;;14.20;99.90;;;;;;5061688;28;20551;-92
2022/09/05 03:07:58;;;;;;;2.40;2.00;;;14.20;99.90;;;;;;5060412;28;20480;-92
2022/09/05 03:10:59;;;;;;;2.80;2.60;;;14.20;99.90;;;;;;5025510;28;20456;-93
2022/09/05 03:14:11;;;;;;;2.27;2.07;;;14.20;99.90;;;;;;5062062;28;20459;-93
2022/09/05 03:17:22;;;;;;;2.57;2.37;;;14.20;99.90;;;;;;5062043;28;20456;-93
2022/09/05 03:24:03;;;;;;;2.97;2.37;;;14.20;99.90;;;;;;5036051;28;20444;-93
2022/09/05 03:33:56;;;;;;;2.47;2.10;;;14.10;99.90;;;;;;5049778;28;20451;-91
2022/09/05 03:40:27;;;;;;;3.57;3.37;;;14.10;99.90;;;;;;5045049;28;20437;-94
2022/09/05 03:43:24;;;;;;;2.90;2.00;;;14.10;99.90;;;;;;5064254;28;20455;-94
2022/09/05 03:46:17;;;;;;;2.07;1.87;;;14.00;99.90;;;;;;5043710;28;20449;-92
2022/09/05 03:52:13;;;;;;;2.87;2.53;;;14.00;99.90;;;;;;5054397;28;20467;-93
2022/09/05 04:12:49;;;;;;;4.47;1.90;;;13.90;99.90;;;;;;5083113;22;20515;-93
2022/09/05 04:15:30;;;;;;;2.43;2.23;;;13.90;99.90;;;;;;5051190;28;20453;-94
2022/09/05 04:17:59;;;;;;;2.40;2.20;;;13.90;99.90;;;;;;5048595;28;20513;-95
2022/09/05 04:20:35;;;;;;;2.87;2.37;;;13.90;99.90;;;;;;5045055;28;20453;-94
2022/09/05 04:23:11;;;;;;;2.70;2.43;;;13.90;99.90;;;;;;5050457;28;20455;-95
2022/09/05 04:25:53;;;;;;;3.27;2.97;;;13.90;99.90;;;;;;5059488;28;20463;-95
2022/09/05 04:28:41;;;;;;;2.47;2.27;;;13.90;99.90;;;;;;5053590;28;20457;-94
2022/09/05 04:31:19;;;;;;;1.97;1.87;;;13.90;99.90;;;;;;5046533;28;20472;-95
2022/09/05 04:33:59;;;;;;;2.47;2.23;;;13.90;99.90;;;;;;5042987;28;20496;-93
2022/09/05 04:36:30;;;;;;;2.50;2.30;;;13.90;99.90;;;;;;5044325;28;20469;-94
2022/09/05 04:39:22;;;;;;;2.83;2.60;;;13.80;99.90;;;;;;5044139;28;20487;-93
2022/09/05 04:41:52;;;;;;;2.20;2.00;;;13.80;99.90;;;;;;5047655;28;20450;-93
2022/09/05 04:44:26;;;;;;;2.30;2.10;;;13.80;99.90;;;;;;5045596;28;20484;-94
2022/09/05 04:46:55;;;;;;;2.80;2.60;;;13.80;99.90;;;;;;5047732;28;20480;-93
2022/09/05 04:49:26;;;;;;;2.90;2.10;;;13.80;99.90;;;;;;5046660;28;20464;-93
2022/09/05 04:52:27;;;;;;;2.63;2.30;;;13.80;99.90;;;;;;5048452;28;20771;-94
2022/09/05 04:55:00;;;;;;;2.50;2.30;;;13.80;99.90;;;;;;5046368;28;20480;-93
2022/09/05 04:57:34;;;;;;;2.40;2.20;;;13.80;99.90;;;;;;5046445;28;20457;-93
2022/09/05 05:00:07;;;;;;;2.40;2.20;;;13.80;99.90;;;;;;5046830;28;20468;-93
2022/09/05 05:02:37;;;;;;;3.00;2.30;;;13.80;99.90;;;;;;5046785;28;20461;-93
2022/09/05 05:05:09;;;;;;;2.70;2.13;;;13.70;99.90;;;;;;5048101;28;20583;-93
2022/09/05 05:07:47;;;;;;;2.40;1.97;;;13.80;99.90;;;;;;5046659;28;20516;-93
2022/09/05 05:10:24;;;;;;;3.10;2.70;;;13.80;99.90;;;;;;5046561;28;20460;-93
2022/09/05 05:13:04;;;;;;;3.60;2.63;;;13.80;99.90;;;;;;5045703;28;20476;-93
2022/09/05 05:15:36;;;;;;;3.60;2.60;;;13.80;99.90;;;;;;5045543;28;20481;-95
2022/09/05 05:18:13;;;;;;;2.57;2.37;;;13.80;99.90;;;;;;5044662;28;20465;-95
2022/09/05 05:20:49;;;;;;;2.33;2.13;;;13.80;99.90;;;;;;5045508;28;20453;-93
2022/09/05 05:23:18;;;;;;;2.30;2.10;;;13.90;99.90;;;;;;5044620;28;20990;-93
2022/09/05 05:25:50;;;;;;;3.13;2.83;;;13.90;99.90;;;;;;5044345;28;20473;-93
2022/09/05 05:28:25;;;;;;;2.10;1.90;;;13.90;99.90;;;;;;5044606;28;20862;-94
2022/09/05 05:30:55;;;;;;;3.27;2.70;;;14.00;99.90;;;;;;5045404;28;20962;-93
2022/09/05 05:33:27;;;;;;;3.00;2.70;;;14.00;99.90;;;;;;5044687;28;20475;-92
2022/09/05 05:35:56;;;;;;;2.23;1.90;;;14.00;99.90;;;;;;5045192;28;20469;-93
2022/09/05 05:38:35;;;;;;;3.40;2.53;;;14.00;99.90;;;;;;5045371;28;20441;-93
2022/09/05 05:41:10;;;;;;;2.37;2.10;;;14.00;99.90;;;;;;5046567;28;20457;-93
2022/09/05 05:43:40;;;;;;;2.50;2.30;;;14.10;99.90;;;;;;5044228;28;20471;-93
2022/09/05 05:46:36;;;;;;;2.50;2.30;;;14.10;99.90;;;;;;5045903;28;20484;-94
2022/09/05 05:49:13;;;;;;;2.63;2.43;;;14.20;99.90;;;;;;5044584;28;20592;-92
2022/09/05 05:51:52;;;;;;;4.40;3.10;;;14.20;99.90;;;;;;5043792;28;20993;-93
2022/09/05 05:54:27;;;;;;;2.73;2.47;;;14.20;99.90;;;;;;5043191;28;20476;-94
2022/09/05 05:57:22;;;;;;;3.27;2.80;;;14.30;99.90;;;;;;5043260;28;20471;-93
2022/09/05 06:00:06;;;;;;;2.50;2.30;;;14.30;99.90;;;;;;5043919;28;20472;-94
2022/09/05 06:03:07;;;;;;;2.70;2.47;;;14.40;99.90;;;;;;5044177;28;20519;-93
2022/09/05 06:05:55;;;;;;;2.17;1.97;;;14.40;99.90;;;;;;5046946;28;20477;-93
2022/09/05 06:08:44;;;;;;;2.80;2.50;;;14.50;99.90;;;;;;5043300;28;20481;-93
2022/09/05 06:11:23;;;;;;;4.87;1.93;;;14.60;99.90;;;;;;5042545;28;20460;-94
2022/09/05 06:14:38;;;;;;;2.83;2.53;;;14.60;99.90;;;;;;5041677;28;21120;-93
2022/09/05 06:17:47;;;;;;;3.03;2.60;;;14.60;99.90;;;;;;5001252;28;20463;-93
2022/09/05 06:21:08;;;;;;;2.87;2.57;;;14.70;99.90;;;;;;5001181;28;20484;-93
2022/09/05 06:24:15;;;;;;;3.23;2.70;;;14.80;99.90;;;;;;5044138;28;20977;-93
2022/09/05 06:27:26;;;;;;;2.50;2.30;;;14.90;99.90;;;;;;5027221;28;20472;-93
2022/09/05 06:29:59;;;;;;;4.70;2.50;;;15.00;99.90;;;;;;5047819;28;20449;-95
2022/09/05 06:32:39;;;;;;;2.30;2.10;;;15.10;99.90;;;;;;5049095;28;20564;-93
2022/09/05 06:35:22;;;;;;;3.20;2.77;;;15.20;99.90;;;;;;5042449;28;20481;-93
2022/09/05 06:38:03;;;;;;;2.77;2.40;;;15.30;99.90;;;;;;5043557;28;20535;-93
2022/09/05 06:40:46;;;;;;;2.70;2.50;;;15.40;99.90;;;;;;5043002;28;20467;-93
2022/09/05 06:43:30;;;;;;;3.23;2.90;;;15.50;99.90;;;;;;5044344;28;20484;-93
2022/09/05 06:46:17;;;;;;;3.00;2.80;;;15.60;99.90;;;;;;5047586;28;20464;-93
2022/09/05 06:48:47;;;;;;;2.50;2.17;;;15.80;99.90;;;;;;5048418;28;20480;-94
2022/09/05 06:51:44;;;;;;;2.73;2.40;;;15.90;99.90;;;;;;5048234;28;20461;-93
2022/09/05 06:54:30;;;;;;;3.13;2.60;;;16.10;99.90;;;;;;5046081;28;20484;-93
2022/09/05 06:57:10;;;;;;;2.50;2.30;;;16.20;99.90;;;;;;5047733;28;20535;-93
2022/09/05 07:00:19;;;;;;;3.20;2.90;;;16.30;99.90;;;;;;5048209;28;20449;-93
2022/09/05 07:03:00;;;;;;;2.80;2.60;;;16.50;99.90;;;;;;5042786;28;20514;-93
2022/09/05 07:05:36;;;;;;;4.60;2.53;;;16.60;99.90;;;;;;5049129;28;20493;-94
2022/09/05 07:08:14;;;;;;;2.53;2.30;;;16.80;99.90;;;;;;5051099;28;20476;-94
2022/09/05 07:10:50;;;;;;;2.73;2.40;;;16.90;99.90;;;;;;5052300;28;20466;-93
2022/09/05 07:13:22;;;;;;;3.10;2.50;;;17.10;99.90;;;;;;5052665;28;20452;-93
2022/09/05 07:15:56;;;;;;;3.83;2.30;;;17.20;99.90;;;;;;5052478;28;20465;-93
2022/09/05 07:18:30;;;;;;;2.80;2.60;;;17.40;99.90;;;;;;5053000;28;20457;-93
2022/09/05 07:21:01;;;;;;;2.53;2.33;;;17.50;99.90;;;;;;5053146;28;20473;-92
2022/09/05 07:23:48;;;;;;;2.93;2.73;;;17.70;99.90;;;;;;5052973;28;20484;-94
2022/09/05 07:26:17;;;;;;;2.77;2.47;;;17.90;99.90;;;;;;5054380;28;20536;-93
2022/09/05 07:28:50;;;;;;;2.47;2.17;;;18.00;99.90;;;;;;5054723;28;20491;-94
2022/09/05 07:31:23;;;;;;;2.70;2.17;;;18.20;99.90;;;;;;5055204;28;20468;-93
2022/09/05 07:34:08;;;;;;;3.07;2.70;;;18.40;99.90;;;;;;5054180;28;20477;-94
2022/09/05 07:36:40;;;;;;;4.00;2.13;;;18.50;99.90;;;;;;5054390;28;20465;-93
2022/09/05 07:39:12;;;;;;;2.50;2.30;;;18.70;99.90;;;;;;5055846;28;20440;-94
2022/09/05 07:41:43;;;;;;;3.23;2.57;;;18.80;99.90;;;;;;5055298;28;20476;-93
2022/09/05 07:44:18;;;;;;;4.83;2.80;;;19.00;99.90;;;;;;5053707;28;20492;-94
2022/09/05 07:46:49;;;;;;;2.10;2.00;;;19.20;99.90;;;;;;5054880;28;20448;-94
2022/09/05 07:49:20;;;;;;;3.03;2.33;;;19.30;99.90;;;;;;5056168;28;20490;-94
2022/09/05 07:51:53;;;;;;;3.20;2.30;;;19.50;99.90;;;;;;5056788;28;20469;-95
2022/09/05 07:54:25;;;;;;;1.63;1.53;;;19.60;99.90;;;;;;5057949;28;20534;-94
2022/09/05 07:56:54;;;;;;;1.87;1.77;;;19.80;99.90;;;;;;5056632;28;20468;-94
2022/09/05 07:59:25;;;;;;;2.63;2.20;;;19.90;99.90;;;;;;5053492;28;20454;-95
2022/09/05 08:01:55;;;;;;;2.37;2.07;;;20.00;99.90;;;;;;5054113;28;20465;-93
2022/09/05 08:04:27;;;;;;;2.40;2.20;;;20.00;99.90;;;;;;5095042;22;20545;-94
2022/09/05 08:06:56;;;;;;;2.33;2.13;;;20.10;99.90;;;;;;5080057;28;20466;-96
2022/09/05 08:09:27;;;;;;;1.80;1.70;;;20.30;99.90;;;;;;5080827;28;20468;-96
2022/09/05 08:12:00;;;;;;;2.83;2.30;;;20.30;99.90;;;;;;5080679;28;20448;-95
2022/09/05 08:14:41;;;;;;;2.47;2.27;;;20.40;99.90;;;;;;5080434;28;20490;-96
2022/09/05 08:17:13;;;;;;;2.07;1.97;;;20.60;99.90;;;;;;5080250;28;20446;-95
2022/09/05 08:19:54;;;;;;;2.53;2.33;;;20.80;99.90;;;;;;5080675;28;20459;-95
2022/09/05 08:22:23;;;;;;;1.97;1.83;;;20.90;99.90;;;;;;5080641;28;20444;-95
2022/09/05 08:24:59;;;;;;;3.30;2.40;;;21.00;99.90;;;;;;5080541;28;20452;-95
2022/09/05 08:27:32;;;;;;;2.10;1.87;;;21.20;99.90;;;;;;5080698;28;20427;-94
2022/09/05 08:30:06;;;;;;;3.10;2.17;;;21.40;99.90;;;;;;5080580;28;20463;-95
2022/09/05 08:32:43;;;;;;;2.07;1.90;;;21.50;99.90;;;;;;5080641;28;20479;-95
2022/09/05 08:35:16;;;;;;;2.20;2.00;;;21.60;99.90;;;;;;5080390;28;20480;-96
2022/09/05 08:37:45;;;;;;;1.80;1.70;;;21.70;99.90;;;;;;5080264;28;20462;-95
2022/09/05 08:40:24;;;;;;;2.73;2.00;;;21.80;99.90;;;;;;5080160;28;20442;-96
2022/09/05 08:45:39;;;;;;;2.37;2.17;;;22.00;99.90;;;;;;5733500;22;20486;-95
2022/09/05 08:48:20;;;;;;;2.27;1.90;;;22.00;99.90;;;;;;5071596;28;20511;-95
2022/09/05 08:51:23;;;;;;;2.13;2.00;;;22.20;99.90;;;;;;5079953;28;20496;-94
2022/09/05 08:54:18;;;;;;;2.17;1.97;;;22.30;99.90;;;;;;5068866;28;20460;-95
2022/09/05 08:56:54;;;;;;;2.87;2.37;;;22.40;99.90;;;;;;5057746;28;20483;-95
2022/09/05 09:00:05;;;;;;;;;;;;;;;;;;;;;
2022/09/05 09:03:11;;;;;;;2.37;2.17;;;22.80;99.90;;;;;;5059456;28;20441;-95
2022/09/05 09:06:15;;;;;;;2.93;2.10;;;23.10;99.90;;;;;;5059468;28;20451;-96
2022/09/05 09:09:05;;;;;;;1.97;1.73;;;23.30;99.90;;;;;;5059832;28;20555;-95
2022/09/05 09:11:35;;;;;;;2.47;1.90;;;23.20;99.90;;;;;;5059542;28;20447;-94
2022/09/05 09:14:32;;;;;;;2.37;2.17;;;23.30;99.90;;;;;;5059327;28;20445;-95
2022/09/05 09:17:05;;;;;;;2.77;2.37;;;23.40;99.90;;;;;;5059536;28;20472;-96
2022/09/05 09:19:48;;;;;;;1.73;1.63;;;23.60;99.90;;;;;;5059496;28;20474;-95
2022/09/05 09:22:29;;;;;;;1.80;1.60;;;23.70;99.90;;;;;;5059313;28;20539;-95
2022/09/05 09:25:03;;;;;;;2.70;2.50;;;23.80;99.90;;;;;;5058975;28;20459;-94
2022/09/05 09:27:39;;;;;;;4.00;2.20;;;23.90;99.90;;;;;;5059277;28;20442;-96
2022/09/05 09:30:07;;;;;;;2.77;2.33;;;24.10;99.90;;;;;;5059335;28;20466;-95
2022/09/05 09:32:44;;;;;;;3.37;1.70;;;24.30;99.90;;;;;;5059326;28;20534;-95
2022/09/05 09:35:21;;;;;;;2.10;2.00;;;24.50;99.90;;;;;;5058897;28;20472;-96
2022/09/05 09:38:26;;;;;;;3.20;2.90;;;24.60;99.90;;;;;;5058920;28;20482;-96
2022/09/05 09:41:26;;;;;;;2.40;2.20;;;24.70;99.90;;;;;;5058931;28;20465;-95
2022/09/05 10:12:58;;;;;;;2.37;1.60;;;26.30;99.90;;;;;;1494294;26;20456;-95
2022/09/05 10:15:29;;;;;;;2.00;1.70;;;26.40;99.90;;;;;;5018976;28;20447;-95
2022/09/05 10:18:23;;;;;;;1.70;1.60;;;26.60;99.90;;;;;;5019097;28;20459;-96
2022/09/05 10:21:07;;;;;;;2.30;2.10;;;26.60;99.90;;;;;;5019044;28;20793;-95
2022/09/05 10:24:16;;;;;;;2.07;1.90;;;26.70;99.90;;;;;;5018748;28;20470;-94
2022/09/05 10:30:19;;;;;;;2.80;2.17;;;26.80;99.90;;;;;;5073066;22;20480;-95
2022/09/05 10:33:15;;;;;;;2.20;2.00;;;26.80;99.90;;;;;;5057048;28;20473;-95
2022/09/05 10:35:44;;;;;;;1.90;1.70;;;26.80;99.90;;;;;;5058414;28;20457;-94
2022/09/05 10:38:16;;;;;;;2.20;1.70;;;26.60;98.20;;;;;;5058491;28;20417;-95
2022/09/05 10:40:46;;;;;;;1.80;1.70;;;26.60;99.90;;;;;;5058367;28;20479;-95
2022/09/05 10:43:21;;;;;;;1.97;1.77;;;26.80;99.90;;;;;;5058083;28;20447;-94
2022/09/05 10:45:59;;;;;;;2.30;2.10;;;27.00;99.90;;;;;;5058155;28;20480;-95
2022/09/05 10:48:30;;;;;;;2.10;1.90;;;27.20;99.90;;;;;;5057980;28;20525;-95
2022/09/05 10:51:00;;;;;;;1.90;1.80;;;27.40;99.90;;;;;;5058161;28;20463;-95
2022/09/05 10:53:37;;;;;;;2.73;2.17;;;27.60;99.90;;;;;;5058214;28;20433;-95
2022/09/05 10:56:13;;;;;;;2.47;2.27;;;27.70;99.90;;;;;;5057966;28;20460;-94
2022/09/05 10:59:00;;;;;;;2.20;2.00;;;27.90;99.90;;;;;;5058332;28;20459;-96
2022/09/05 11:01:36;;;;;;;2.47;2.27;;;28.10;99.90;;;;;;5058241;28;20452;-94
2022/09/05 11:04:22;;;;;;;3.30;2.00;;;28.20;99.90;;;;;;5058016;28;20444;-94
2022/09/05 11:10:00;;;;;;;2.00;1.80;;;28.40;99.90;;;;;;5094535;22;20486;-93
2022/09/05 11:12:38;;;;;;;1.90;1.80;;;28.50;99.90;;;;;;5077857;28;20747;-95
2022/09/05 11:15:13;;;;;;;2.17;1.97;;;28.50;99.90;;;;;;5077923;28;20491;-95
2022/09/05 11:17:50;;;;;;;1.80;1.70;;;28.70;99.90;;;;;;5077819;28;20459;-95
2022/09/05 11:20:43;;;;;;;2.00;1.80;;;28.60;99.60;;;;;;5077764;28;20432;-95
2022/09/05 11:23:16;;;;;;;2.20;2.00;;;28.30;99.30;;;;;;5082118;28;20498;-95
2022/09/05 11:25:45;;;;;;;2.27;2.07;;;27.90;99.90;;;;;;5081743;28;20462;-95
2022/09/05 11:28:16;;;;;;;1.70;1.60;;;27.80;99.90;;;;;;5081909;28;20449;-95
2022/09/05 11:30:52;;;;;;;2.50;2.30;;;27.80;99.90;;;;;;5081720;28;20452;-95
2022/09/05 11:33:53;;;;;;;1.83;1.73;;;28.00;99.90;;;;;;5081705;28;20515;-94
2022/09/05 11:36:25;;;;;;;2.47;2.00;;;28.30;99.90;;;;;;5047215;28;20439;-95
2022/09/05 11:39:02;;;;;;;1.87;1.70;;;28.50;99.90;;;;;;5081650;28;20443;-95
2022/09/05 11:41:58;;;;;;;2.30;2.10;;;28.70;99.90;;;;;;5081678;28;20460;-95
2022/09/05 11:44:34;;;;;;;2.70;1.73;;;28.90;99.90;;;;;;5081441;28;20460;-94
2022/09/05 11:47:31;;;;;;;1.80;1.70;;;29.00;99.90;;;;;;5081544;28;20440;-95
2022/09/05 11:53:08;;;;;;;1.70;1.60;;;29.20;99.00;;;;;;3908913;22;20502;-94
2022/09/05 11:56:09;;;;;;;2.70;1.60;;;29.30;99.20;;;;;;5182485;22;20542;-96
2022/09/05 11:59:05;;;;;;;2.20;2.00;;;29.30;97.50;;;;;;5088968;22;20483;-95
2022/09/05 12:01:40;;;;;;;1.90;1.80;;;29.30;97.70;;;;;;5061071;28;20444;-95
2022/09/05 12:04:36;;;;;;;2.07;1.93;;;29.40;99.50;;;;;;5061148;28;20436;-94
2022/09/05 12:33:02;;;;;;;2.10;1.90;;;27.20;96.90;;;;;;4306179;26;20826;-95
2022/09/05 12:35:37;;;;;;;2.27;1.70;;;27.00;97.30;;;;;;5020495;28;20475;-95
2022/09/05 12:38:19;;;;;;;2.63;2.00;;;26.80;98.80;;;;;;5020357;28;20455;-95
2022/09/05 12:40:52;;;;;;;2.30;2.10;;;26.70;99.90;;;;;;5020539;28;20451;-95
2022/09/05 12:43:25;;;;;;;1.90;1.77;;;26.80;99.40;;;;;;5020241;28;20455;-93
2022/09/05 12:45:57;;;;;;;1.90;1.80;;;27.20;99.90;;;;;;5020575;28;20474;-93
2022/09/05 12:48:31;;;;;;;2.60;1.90;;;27.60;99.90;;;;;;5020200;28;20454;-94
2022/09/05 12:51:02;;;;;;;1.97;1.87;;;28.00;99.20;;;;;;5020180;28;20463;-95
2022/09/05 12:53:42;;;;;;;2.00;1.90;;;28.40;99.90;;;;;;5020168;28;20450;-93
2022/09/05 12:56:16;;;;;;;2.30;2.10;;;28.60;99.90;;;;;;5020486;28;20459;-94
2022/09/05 12:58:47;;;;;;;1.83;1.73;;;28.70;95.20;;;;;;5020525;28;20473;-93
2022/09/05 13:01:29;;;;;;;2.60;2.00;;;28.80;97.90;;;;;;5020359;28;20443;-95
2022/09/05 13:04:17;;;;;;;1.73;1.63;;;28.80;97.90;;;;;;5094167;22;20547;-93
2022/09/05 13:06:45;;;;;;;1.93;1.83;;;28.90;95.80;;;;;;5327724;22;20473;-94
2022/09/05 13:09:21;;;;;;;2.03;1.83;;;29.00;97.70;;;;;;5077369;28;20531;-95
2022/09/05 13:11:51;;;;;;;1.70;1.60;;;29.20;97.00;;;;;;5059927;28;20449;-95
2022/09/05 13:14:23;;;;;;;2.10;1.90;;;29.20;95.90;;;;;;5056462;28;20473;-94
2022/09/05 13:16:55;;;;;;;1.80;1.60;;;29.40;98.20;;;;;;5040101;28;20517;-95
2022/09/05 13:19:34;;;;;;;1.50;1.40;;;29.50;98.40;;;;;;5039985;28;20517;-95
2022/09/05 13:22:04;;;;;;;2.37;2.17;;;29.60;98.70;;;;;;5039985;28;20529;-96
2022/09/05 13:24:37;;;;;;;1.93;1.60;;;29.70;98.00;;;;;;5039629;28;20477;-96
2022/09/05 13:27:12;;;;;;;2.50;1.90;;;29.70;97.90;;;;;;5040027;28;20502;-94
2022/09/05 13:29:50;;;;;;;2.33;1.90;;;29.70;97.10;;;;;;5039699;28;20469;-95
2022/09/05 13:32:29;;;;;;;1.97;1.87;;;29.60;97.00;;;;;;5039871;28;20466;-96
2022/09/05 13:35:05;;;;;;;2.30;2.07;;;29.70;95.20;;;;;;5039337;28;20537;-95
2022/09/05 13:37:35;;;;;;;2.47;2.27;;;29.60;96.40;;;;;;5038918;28;20464;-95
2022/09/05 13:40:09;;;;;;;3.10;1.90;;;29.60;95.80;;;;;;5039013;28;20468;-94
2022/09/05 13:42:43;;;;;;;2.67;1.67;;;29.60;97.20;;;;;;5039812;28;20435;-95
2022/09/05 13:45:17;;;;;;;2.80;2.13;;;29.60;95.50;;;;;;5111354;23;20503;-96
2022/09/05 13:48:19;;;;;;;2.00;1.90;;;29.60;96.50;;;;;;5066543;28;20442;-95
2022/09/05 13:58:41;;;;;;;2.13;1.93;;;29.60;97.80;;;;;;4200656;26;20486;-94
2022/09/05 14:01:53;;;;;;;2.67;2.20;;;29.60;97.30;;;;;;5036256;28;20438;-94
2022/09/05 14:04:46;;;;;;;1.93;1.73;;;29.60;96.90;;;;;;5034349;28;20485;-95
2022/09/05 14:07:57;;;;;;;2.63;1.80;;;29.60;97.00;;;;;;5036369;28;20446;-95
2022/09/05 14:10:48;;;;;;;2.17;1.97;;;29.50;96.40;;;;;;5068507;22;20473;-95
2022/09/05 14:13:23;;;;;;;4.23;2.20;;;29.60;93.10;;;;;;5056992;28;20427;-94
2022/09/05 14:15:56;;;;;;;2.13;1.93;;;29.60;99.20;;;;;;5039910;28;20461;-95
2022/09/05 14:18:24;;;;;;;3.20;2.00;;;29.60;96.90;;;;;;5041105;28;20510;-94
2022/09/05 14:23:52;;;;;;;2.20;2.00;;;29.80;94.80;;;;;;5059746;28;20405;-94
2022/09/05 14:26:24;;;;;;;2.30;2.00;;;29.90;96.70;;;;;;5057858;28;20477;-95
2022/09/05 14:29:02;;;;;;;2.40;2.20;;;29.90;98.20;;;;;;5039707;28;20502;-94
2022/09/05 14:31:45;;;;;;;2.47;2.27;;;29.80;95.30;;;;;;5039447;28;20434;-95
2022/09/05 14:34:33;;;;;;;2.10;1.90;;;29.80;96.20;;;;;;5039315;28;20427;-94
2022/09/05 14:37:19;;;;;;;2.37;2.27;;;29.80;95.50;;;;;;5039704;28;20406;-95
2022/09/05 14:40:35;;;;;;;2.90;2.70;;;29.70;94.60;;;;;;5039605;28;20430;-96
2022/09/05 15:06:32;;;;;;;2.57;2.37;;;29.10;93.10;;;;;;5536617;23;20494;-96
2022/09/05 17:33:53;;;;;;;2.50;2.30;;;24.40;99.90;;;;;;4179687;26;20466;-93
2022/09/05 17:36:27;;;;;;;2.50;2.30;;;24.30;99.90;;;;;;4978247;28;20455;-91
2022/09/05 17:39:10;;;;;;;3.30;2.33;;;24.20;99.90;;;;;;4968599;28;20481;-92
2022/09/05 17:42:11;;;;;;;2.67;2.47;;;24.10;99.90;;;;;;4953786;28;20497;-94
2022/09/05 17:44:52;;;;;;;4.40;2.53;;;24.00;99.90;;;;;;4958543;28;20488;-94
2022/09/05 17:47:23;;;;;;;2.87;2.60;;;23.90;99.90;;;;;;4955989;28;20495;-94
2022/09/05 17:50:12;;;;;;;2.60;2.40;;;23.70;99.90;;;;;;4959384;28;20468;-92
2022/09/05 17:53:05;;;;;;;4.23;2.37;;;23.50;99.90;;;;;;4976559;28;20449;-94
2022/09/05 17:56:11;;;;;;;3.67;2.43;;;23.40;99.90;;;;;;4976280;28;20483;-93
2022/09/05 17:58:38;;;;;;;2.33;2.13;;;23.40;99.90;;;;;;4972960;28;20530;-92
2022/09/05 18:01:16;;;;;;;3.73;3.00;;;23.30;99.90;;;;;;4969403;29;20542;-92
2022/09/05 18:04:05;;;;;;;2.80;2.60;;;23.10;99.90;;;;;;4973398;28;20713;-92
2022/09/05 18:06:46;;;;;;;2.50;2.30;;;23.00;99.90;;;;;;4976879;28;20447;-94
2022/09/05 18:09:58;;;;;;;3.43;2.60;;;22.90;99.90;;;;;;4976555;28;20479;-93
2022/09/05 19:07:11;;;;;;;3.97;3.47;;;21.10;99.90;;;;;;5054017;23;20496;-94
